createdAt,value
2018-04-27T00:00:06.055Z,13.4
2018-04-27T00:01:16.138Z,13.39
2018-04-27T00:02:26.213Z,13.36
2018-04-27T00:03:36.036Z,13.32
2018-04-27T00:04:46.106Z,13.32
2018-04-27T00:05:55.902Z,13.25
2018-04-27T00:07:05.720Z,13.16
2018-04-27T00:08:15.892Z,13.13
2018-04-27T00:09:25.988Z,13.09
2018-04-27T00:10:36.098Z,12.99
2018-04-27T00:11:46.198Z,12.95
2018-04-27T00:12:56.278Z,13.01
2018-04-27T00:14:06.354Z,13.01
2018-04-27T00:15:16.434Z,12.94
2018-04-27T00:16:26.527Z,13.03
2018-04-27T00:17:36.610Z,12.94
2018-04-27T00:18:46.427Z,12.98
2018-04-27T00:19:56.259Z,13.06
2018-04-27T00:21:06.338Z,12.91
2018-04-27T00:22:16.438Z,12.96
2018-04-27T00:23:26.254Z,12.98
2018-04-27T00:24:36.068Z,13.03
2018-04-27T00:25:46.166Z,12.98
2018-04-27T00:26:56.256Z,13.01
2018-04-27T00:28:06.060Z,13.03
2018-04-27T00:29:16.136Z,13.03
2018-04-27T00:30:25.952Z,12.99
2018-04-27T00:31:35.763Z,13.01
2018-04-27T00:32:45.869Z,13.02
2018-04-27T00:33:55.964Z,13.02
2018-04-27T00:35:06.041Z,13.06
2018-04-27T00:36:15.857Z,13.11
2018-04-27T00:37:25.944Z,13.07
2018-04-27T00:38:36.025Z,13.1
2018-04-27T00:39:46.104Z,13.1
2018-04-27T00:40:55.923Z,13.1
2018-04-27T00:42:05.726Z,13.1
2018-04-27T00:43:15.802Z,13.03
2018-04-27T00:44:25.626Z,13.06
2018-04-27T00:45:35.707Z,13.07
2018-04-27T00:46:45.793Z,13.09
2018-04-27T00:47:55.876Z,13.06
2018-04-27T00:49:05.691Z,12.99
2018-04-27T00:50:15.753Z,13.01
2018-04-27T00:51:25.822Z,12.98
2018-04-27T00:52:35.921Z,12.98
2018-04-27T00:53:45.729Z,13.01
2018-04-27T00:54:55.828Z,12.91
2018-04-27T00:56:05.901Z,12.92
2018-04-27T00:57:15.985Z,12.88
2018-04-27T00:58:26.068Z,12.89
2018-04-27T00:59:36.172Z,12.83
2018-04-27T01:00:46.305Z,12.88
2018-04-27T01:01:56.367Z,12.8
2018-04-27T01:03:06.448Z,12.84
2018-04-27T01:04:16.275Z,12.77
2018-04-27T01:05:26.360Z,12.78
2018-04-27T01:06:36.439Z,12.73
2018-04-27T01:07:46.523Z,12.59
2018-04-27T01:08:56.338Z,12.63
2018-04-27T01:10:06.148Z,12.59
2018-04-27T01:11:15.961Z,12.59
2018-04-27T01:12:26.036Z,12.63
2018-04-27T01:13:35.859Z,12.62
2018-04-27T01:14:45.924Z,12.61
2018-04-27T01:15:55.997Z,12.59
2018-04-27T01:17:05.817Z,12.59
2018-04-27T01:18:15.687Z,12.62
2018-04-27T01:19:25.774Z,12.59
2018-04-27T01:20:35.850Z,12.55
2018-04-27T01:21:45.935Z,12.56
2018-04-27T01:22:56.024Z,12.61
2018-04-27T01:24:05.873Z,12.58
2018-04-27T01:25:15.947Z,12.62
2018-04-27T01:26:26.048Z,12.58
2018-04-27T01:27:35.870Z,12.61
2018-04-27T01:28:45.943Z,12.47
2018-04-27T01:29:56.013Z,12.45
2018-04-27T01:31:05.814Z,12.41
2018-04-27T01:32:15.636Z,12.38
2018-04-27T01:33:25.714Z,12.36
2018-04-27T01:34:35.533Z,12.23
2018-04-27T01:35:45.659Z,12.26
2018-04-27T01:36:55.740Z,12.25
2018-04-27T01:38:05.844Z,12.15
2018-04-27T01:39:15.928Z,12.16
2018-04-27T01:40:26.029Z,12.15
2018-04-27T01:41:36.110Z,12.13
2018-04-27T01:42:46.252Z,12.08
2018-04-27T01:43:56.317Z,12.18
2018-04-27T01:45:06.414Z,12.16
2018-04-27T01:46:16.231Z,12.16
2018-04-27T01:47:26.376Z,12.15
2018-04-27T01:48:36.458Z,12.07
2018-04-27T01:49:46.543Z,12.07
2018-04-27T01:50:56.345Z,12.05
2018-04-27T01:52:06.160Z,11.97
2018-04-27T01:53:16.293Z,11.95
2018-04-27T01:54:26.384Z,11.97
2018-04-27T01:55:36.460Z,11.91
2018-04-27T01:56:46.531Z,11.95
2018-04-27T01:57:56.607Z,11.91
2018-04-27T01:59:06.766Z,11.86
2018-04-27T02:00:16.840Z,11.86
2018-04-27T02:01:26.667Z,11.89
2018-04-27T02:02:36.740Z,11.94
2018-04-27T02:03:46.545Z,11.95
2018-04-27T02:04:56.678Z,11.85
2018-04-27T02:06:06.810Z,11.98
2018-04-27T02:07:16.882Z,12.03
2018-04-27T02:08:26.964Z,11.88
2018-04-27T02:09:37.041Z,12.01
2018-04-27T02:10:47.109Z,11.94
2018-04-27T02:11:57.171Z,11.91
2018-04-27T02:13:07.248Z,11.98
2018-04-27T02:14:17.065Z,11.94
2018-04-27T02:15:27.139Z,11.89
2018-04-27T02:16:37.213Z,11.91
2018-04-27T02:17:47.312Z,11.91
2018-04-27T02:18:57.147Z,11.88
2018-04-27T02:20:07.223Z,11.91
2018-04-27T02:21:17.300Z,11.89
2018-04-27T02:22:27.102Z,11.85
2018-04-27T02:23:37.196Z,11.89
2018-04-27T02:24:47.252Z,11.91
2018-04-27T02:25:57.344Z,11.94
2018-04-27T02:27:07.409Z,11.97
2018-04-27T02:28:17.529Z,11.86
2018-04-27T02:29:27.617Z,11.91
2018-04-27T02:30:37.706Z,11.88
2018-04-27T02:31:47.799Z,11.86
2018-04-27T02:32:57.369Z,11.97
2018-04-27T02:34:07.507Z,11.89
2018-04-27T02:35:17.599Z,11.94
2018-04-27T02:36:27.421Z,11.88
2018-04-27T02:37:37.525Z,11.85
2018-04-27T02:38:47.596Z,11.76
2018-04-27T02:39:57.463Z,11.68
2018-04-27T02:41:07.544Z,11.63
2018-04-27T02:42:17.365Z,11.66
2018-04-27T02:43:27.195Z,11.64
2018-04-27T02:44:37.028Z,11.61
2018-04-27T02:45:47.113Z,11.48
2018-04-27T02:46:57.202Z,11.48
2018-04-27T02:48:07.277Z,11.57
2018-04-27T02:49:17.357Z,11.51
2018-04-27T02:50:27.435Z,11.56
2018-04-27T02:51:37.532Z,11.61
2018-04-27T02:52:47.349Z,11.56
2018-04-27T02:53:57.432Z,11.45
2018-04-27T02:55:07.511Z,11.51
2018-04-27T02:56:17.583Z,11.49
2018-04-27T02:57:27.657Z,11.38
2018-04-27T02:58:37.483Z,11.34
2018-04-27T02:59:47.540Z,11.41
2018-04-27T03:00:57.636Z,11.35
2018-04-27T03:02:07.465Z,11.33
2018-04-27T03:34:18.523Z,7.86
2018-04-27T03:35:28.765Z,7.74
2018-04-27T03:36:38.829Z,7.74
2018-04-27T03:37:48.895Z,7.8
2018-04-27T03:38:58.721Z,7.98
2018-04-27T03:40:08.870Z,7.92
2018-04-27T03:41:18.949Z,8.09
2018-04-27T03:42:28.758Z,8.17
2018-04-27T03:43:38.567Z,8.43
2018-04-27T03:44:48.189Z,8.46
2018-04-27T03:45:58.267Z,8.57
2018-04-27T03:47:08.342Z,8.8
2018-04-27T03:48:18.409Z,8.94
2018-04-27T03:49:28.212Z,9.09
2018-04-27T03:50:37.748Z,9.34
2018-04-27T03:51:47.614Z,9.44
2018-04-27T03:52:57.936Z,9.55
2018-04-27T03:54:08.014Z,9.75
2018-04-27T03:55:18.098Z,9.75
2018-04-27T03:56:27.909Z,9.93
2018-04-27T03:57:37.978Z,10.13
2018-04-27T03:58:48.053Z,10.23
2018-04-27T03:59:58.132Z,10.31
2018-04-27T04:01:08.064Z,10.46
2018-04-27T04:02:18.290Z,10.52
2018-04-27T04:03:28.376Z,10.66
2018-04-27T04:04:38.450Z,10.61
2018-04-27T04:05:48.525Z,10.75
2018-04-27T04:06:58.327Z,10.87
2018-04-27T04:08:08.401Z,10.92
2018-04-27T04:09:18.543Z,11.02
2018-04-27T04:10:28.617Z,11.03
2018-04-27T04:11:38.702Z,11.21
2018-04-27T04:12:48.804Z,11.3
2018-04-27T04:13:58.622Z,11.43
2018-04-27T04:15:08.434Z,11.39
2018-04-27T04:16:18.503Z,11.59
2018-04-27T04:17:28.588Z,11.7
2018-04-27T04:18:38.665Z,11.86
2018-04-27T04:19:48.734Z,12.07
2018-04-27T04:20:58.839Z,12.2
2018-04-27T04:22:08.922Z,12.26
2018-04-27T04:23:19.012Z,12.47
2018-04-27T04:24:29.087Z,12.56
2018-04-27T04:25:39.165Z,12.73
2018-04-27T04:26:49.081Z,12.92
2018-04-27T04:27:59.170Z,13.25
2018-04-27T04:29:08.979Z,13.55
2018-04-27T04:30:19.046Z,13.63
2018-04-27T04:31:29.113Z,13.65
2018-04-27T04:32:39.225Z,13.76
2018-04-27T04:33:49.308Z,14.01
2018-04-27T04:34:59.374Z,14.21
2018-04-27T04:36:09.461Z,14.39
2018-04-27T04:37:19.552Z,14.51
2018-04-27T04:38:29.854Z,14.51
2018-04-27T04:39:39.689Z,14.7
2018-04-27T04:40:49.764Z,14.69
2018-04-27T04:41:59.831Z,14.8
2018-04-27T04:43:09.962Z,14.83
2018-04-27T04:44:20.033Z,14.87
2018-04-27T04:45:30.111Z,15.1
2018-04-27T04:46:40.191Z,15.25
2018-04-27T04:47:50.267Z,15.34
2018-04-27T04:49:00.348Z,15.45
2018-04-27T04:50:10.701Z,15.45
2018-04-27T04:51:20.783Z,15.45
2018-04-27T04:52:31.028Z,15.49
2018-04-27T04:53:41.134Z,15.52
2018-04-27T04:54:51.245Z,15.51
2018-04-27T04:56:01.121Z,15.59
2018-04-27T04:57:10.931Z,15.62
2018-04-27T04:58:20.735Z,15.63
2018-04-27T04:59:30.820Z,15.63
2018-04-27T05:00:40.895Z,15.65
2018-04-27T05:01:50.971Z,15.75
2018-04-27T05:03:01.328Z,15.81
2018-04-27T05:04:11.534Z,15.92
2018-04-27T05:05:21.603Z,16.14
2018-04-27T05:06:31.686Z,16.27
2018-04-27T05:07:41.755Z,16.48
2018-04-27T05:08:51.937Z,16.58
2018-04-27T05:10:02.004Z,16.73
2018-04-27T05:11:12.082Z,16.91
2018-04-27T05:12:21.898Z,17.13
2018-04-27T05:13:32.002Z,17.18
2018-04-27T05:14:42.092Z,17.35
2018-04-27T05:15:52.162Z,17.42
2018-04-27T05:17:02.252Z,17.65
2018-04-27T05:18:12.352Z,17.83
2018-04-27T05:19:22.432Z,18.02
2018-04-27T05:20:32.325Z,18.08
2018-04-27T05:21:42.147Z,18.19
2018-04-27T05:22:51.962Z,18.19
2018-04-27T05:24:02.048Z,18.14
2018-04-27T05:25:12.138Z,18.35
2018-04-27T05:26:22.218Z,18.6
2018-04-27T05:27:32.365Z,18.75
2018-04-27T05:28:42.442Z,18.86
2018-04-27T05:29:52.629Z,18.9
2018-04-27T05:31:02.732Z,18.99
2018-04-27T05:32:12.560Z,19.09
2018-04-27T05:33:22.648Z,19.16
2018-04-27T05:34:32.721Z,19.27
2018-04-27T05:35:42.809Z,19.49
2018-04-27T05:36:52.906Z,19.61
2018-04-27T05:38:02.990Z,19.68
2018-04-27T05:39:13.077Z,19.64
2018-04-27T05:40:23.146Z,19.53
2018-04-27T05:41:32.697Z,19.52
2018-04-27T05:42:42.826Z,19.57
2018-04-27T05:43:52.894Z,19.46
2018-04-27T05:45:02.717Z,19.38
2018-04-27T05:46:12.821Z,19.34
2018-04-27T05:47:22.649Z,19.4
2018-04-27T05:48:32.535Z,19.32
2018-04-27T05:49:42.611Z,19.16
2018-04-27T05:50:52.423Z,18.96
2018-04-27T05:52:02.516Z,18.82
2018-04-27T05:53:12.584Z,18.91
2018-04-27T05:54:22.454Z,18.87
2018-04-27T05:55:32.690Z,18.93
2018-04-27T05:56:42.834Z,18.96
2018-04-27T05:57:52.655Z,18.96
2018-04-27T05:59:02.736Z,19.13
2018-04-27T06:00:12.869Z,19.09
2018-04-27T06:01:22.970Z,19.09
2018-04-27T06:02:33.059Z,19.17
2018-04-27T06:03:43.134Z,19.19
2018-04-27T06:04:53.221Z,19.19
2018-04-27T06:06:03.300Z,19.19
2018-04-27T06:07:13.390Z,19.07
2018-04-27T06:08:23.507Z,19.13
2018-04-27T06:09:33.581Z,19.09
2018-04-27T06:10:43.665Z,19
2018-04-27T06:11:53.812Z,19.06
2018-04-27T06:13:03.890Z,19.02
2018-04-27T06:14:13.975Z,19
2018-04-27T06:15:24.056Z,19
2018-04-27T06:16:34.163Z,19.06
2018-04-27T06:17:44.259Z,19.06
2018-04-27T06:18:54.334Z,19.09
2018-04-27T06:20:04.407Z,19.02
2018-04-27T06:21:14.484Z,18.99
2018-04-27T06:22:24.573Z,19.05
2018-04-27T06:23:34.724Z,19.06
2018-04-27T06:24:44.805Z,19.09
2018-04-27T06:25:54.963Z,19.07
2018-04-27T06:27:05.048Z,18.94
2018-04-27T06:28:15.133Z,19
2018-04-27T06:29:25.251Z,19.07
2018-04-27T06:30:35.329Z,19
2018-04-27T06:31:45.576Z,18.97
2018-04-27T06:32:55.435Z,18.99
2018-04-27T06:34:05.530Z,18.99
2018-04-27T06:35:15.616Z,18.9
2018-04-27T06:36:25.707Z,18.91
2018-04-27T06:37:35.529Z,18.89
2018-04-27T06:38:45.615Z,18.89
2018-04-27T06:39:55.686Z,18.96
2018-04-27T06:41:05.512Z,18.94
2018-04-27T06:42:15.340Z,18.91
2018-04-27T06:43:25.147Z,18.99
2018-04-27T06:44:35.229Z,19.06
2018-04-27T06:45:45.300Z,19
2018-04-27T06:46:55.375Z,19.07
2018-04-27T06:48:05.470Z,19.15
2018-04-27T06:49:15.559Z,19.07
2018-04-27T06:50:25.643Z,19.09
2018-04-27T06:51:35.560Z,19.1
2018-04-27T06:52:45.787Z,19.09
2018-04-27T06:53:55.617Z,19.09
2018-04-27T06:55:05.709Z,19.2
2018-04-27T06:56:15.781Z,19.23
2018-04-27T06:57:25.863Z,19.24
2018-04-27T06:58:35.758Z,19.24
2018-04-27T06:59:45.851Z,19.17
2018-04-27T07:00:55.677Z,19.15
2018-04-27T07:02:05.773Z,19.27
2018-04-27T07:03:15.595Z,19.37
2018-04-27T07:04:25.720Z,19.42
2018-04-27T07:05:35.814Z,19.4
2018-04-27T07:06:45.915Z,19.31
2018-04-27T07:07:56.006Z,19.4
2018-04-27T07:09:05.848Z,19.43
2018-04-27T07:10:16.007Z,19.45
2018-04-27T07:11:26.077Z,19.6
2018-04-27T07:12:36.357Z,19.47
2018-04-27T07:13:46.458Z,19.45
2018-04-27T07:14:56.541Z,19.34
2018-04-27T07:16:06.641Z,19.46
2018-04-27T07:17:16.790Z,19.49
2018-04-27T07:18:26.871Z,19.43
2018-04-27T07:19:36.975Z,19.55
2018-04-27T07:20:47.054Z,19.64
2018-04-27T07:21:56.918Z,19.63
2018-04-27T07:23:07.000Z,19.72
2018-04-27T07:24:17.089Z,19.65
2018-04-27T07:25:27.163Z,19.63
2018-04-27T07:26:36.991Z,19.61
2018-04-27T07:27:47.072Z,19.78
2018-04-27T07:28:57.225Z,19.75
2018-04-27T07:30:07.304Z,19.72
2018-04-27T07:31:17.133Z,19.78
2018-04-27T07:32:27.296Z,19.75
2018-04-27T07:33:37.372Z,19.8
2018-04-27T07:34:47.464Z,19.83
2018-04-27T07:35:57.009Z,19.86
2018-04-27T07:37:07.156Z,19.9
2018-04-27T07:38:16.990Z,19.92
2018-04-27T07:39:27.134Z,19.95
2018-04-27T07:40:37.272Z,19.95
2018-04-27T07:41:47.082Z,19.95
2018-04-27T07:42:57.167Z,19.97
2018-04-27T07:44:07.020Z,20.05
2018-04-27T07:45:17.211Z,20
2018-04-27T07:46:27.485Z,20.1
2018-04-27T07:47:37.572Z,20.15
2018-04-27T07:48:47.660Z,20.05
2018-04-27T07:49:57.731Z,20.26
2018-04-27T07:51:07.900Z,20.19
2018-04-27T07:52:17.982Z,20.11
2018-04-27T07:53:28.067Z,20.27
2018-04-27T07:54:38.185Z,20.32
2018-04-27T07:55:48.267Z,20.44
2018-04-27T07:56:58.337Z,20.38
2018-04-27T07:58:08.432Z,20.38
2018-04-27T07:59:18.498Z,20.48
2018-04-27T08:00:28.337Z,20.48
2018-04-27T08:01:38.414Z,20.49
2018-04-27T08:02:48.559Z,20.74
2018-04-27T08:03:58.384Z,20.81
2018-04-27T08:05:08.473Z,20.81
2018-04-27T08:06:18.305Z,20.98
2018-04-27T08:07:28.419Z,21.18
2018-04-27T08:08:38.284Z,21.41
2018-04-27T08:09:47.839Z,21.55
2018-04-27T08:10:57.656Z,21.86
2018-04-27T08:12:07.760Z,22.02
2018-04-27T08:13:17.852Z,22.18
2018-04-27T08:14:27.971Z,22.27
2018-04-27T08:15:38.063Z,22.45
2018-04-27T08:16:48.136Z,22.57
2018-04-27T08:17:58.292Z,22.46
2018-04-27T08:19:08.449Z,22.51
2018-04-27T08:20:18.593Z,22.54
2018-04-27T08:21:28.423Z,22.61
2018-04-27T08:22:38.518Z,22.63
2018-04-27T08:23:48.605Z,22.73
2018-04-27T08:24:58.444Z,22.73
2018-04-27T08:26:08.524Z,22.59
2018-04-27T08:27:18.673Z,22.54
2018-04-27T08:28:28.497Z,22.69
2018-04-27T08:29:38.592Z,22.81
2018-04-27T08:30:48.684Z,22.63
2018-04-27T08:31:58.837Z,22.66
2018-04-27T08:33:08.941Z,22.66
2018-04-27T08:34:19.057Z,22.48
2018-04-27T08:35:28.891Z,22.34
2018-04-27T08:36:38.732Z,22.07
2018-04-27T08:37:48.869Z,22.07
2018-04-27T08:38:58.974Z,21.86
2018-04-27T08:40:09.062Z,21.92
2018-04-27T08:41:18.891Z,21.92
2018-04-27T08:42:29.072Z,21.99
2018-04-27T08:43:39.162Z,21.92
2018-04-27T08:44:49.411Z,21.99
2018-04-27T08:45:59.229Z,21.96
2018-04-27T08:47:09.353Z,22.09
2018-04-27T08:48:19.469Z,22.05
2018-04-27T08:49:29.573Z,22.08
2018-04-27T08:50:39.599Z,21.99
2018-04-27T08:51:49.685Z,21.99
2018-04-27T08:52:59.766Z,21.97
2018-04-27T08:54:09.896Z,21.96
2018-04-27T08:55:19.738Z,21.92
2018-04-27T08:56:29.831Z,21.99
2018-04-27T08:57:40.020Z,21.92
2018-04-27T08:58:50.125Z,22.02
2018-04-27T09:00:00.218Z,22.23
2018-04-27T09:01:10.345Z,22.22
2018-04-27T09:02:19.915Z,22.16
2018-04-27T09:03:29.727Z,21.99
2018-04-27T09:04:39.575Z,21.94
2018-04-27T09:05:49.411Z,21.99
2018-04-27T09:06:59.255Z,22.07
2018-04-27T09:08:09.341Z,22.04
2018-04-27T09:09:19.169Z,22
2018-04-27T09:10:28.994Z,21.97
2018-04-27T09:11:39.064Z,21.94
2018-04-27T09:12:49.214Z,21.96
2018-04-27T09:13:59.056Z,22.04
2018-04-27T09:15:08.902Z,22
2018-04-27T09:16:19.233Z,22.15
2018-04-27T09:17:29.433Z,22.14
2018-04-27T09:18:39.509Z,22.27
2018-04-27T09:19:49.330Z,22.41
2018-04-27T09:20:59.392Z,22.22
2018-04-27T09:22:09.469Z,22.3
2018-04-27T09:23:19.567Z,22.44
2018-04-27T09:24:29.710Z,22.49
2018-04-27T09:25:39.808Z,22.45
2018-04-27T09:26:49.981Z,22.69
2018-04-27T09:28:00.232Z,22.7
2018-04-27T09:29:10.321Z,22.75
2018-04-27T09:30:20.158Z,22.73
2018-04-27T09:31:29.981Z,22.79
2018-04-27T09:32:40.066Z,22.78
2018-04-27T09:33:50.144Z,22.91
2018-04-27T09:35:00.276Z,22.92
2018-04-27T09:36:10.162Z,23.04
2018-04-27T09:37:20.262Z,23.07
2018-04-27T09:38:30.364Z,23.18
2018-04-27T09:39:40.454Z,23.18
2018-04-27T09:40:50.286Z,23.1
2018-04-27T09:42:00.411Z,23.03
2018-04-27T09:43:10.508Z,23.06
2018-04-27T09:44:20.342Z,23.14
2018-04-27T09:45:30.218Z,23.21
2018-04-27T09:46:40.291Z,23.29
2018-04-27T09:47:50.394Z,23.22
2018-04-27T09:49:00.268Z,23.37
2018-04-27T09:50:10.129Z,23.45
2018-04-27T09:51:19.945Z,23.35
2018-04-27T09:52:30.032Z,23.38
2018-04-27T09:53:40.274Z,23.38
2018-04-27T09:54:50.371Z,23.38
2018-04-27T09:56:00.178Z,23.26
2018-04-27T09:57:10.093Z,23.28
2018-04-27T09:58:20.197Z,23.32
2018-04-27T09:59:30.363Z,23.4
2018-04-27T10:00:40.453Z,23.48
2018-04-27T10:01:50.677Z,23.48
2018-04-27T10:03:00.553Z,23.59
2018-04-27T10:04:10.670Z,23.55
2018-04-27T10:05:20.759Z,23.6
2018-04-27T10:06:30.853Z,23.67
2018-04-27T10:07:40.922Z,23.77
2018-04-27T10:08:51.074Z,23.74
2018-04-27T10:10:01.143Z,23.72
2018-04-27T10:11:11.217Z,23.74
2018-04-27T10:12:21.065Z,23.82
2018-04-27T10:13:31.188Z,23.81
2018-04-27T10:14:41.324Z,23.89
2018-04-27T10:15:51.430Z,23.93
2018-04-27T10:17:01.575Z,23.9
2018-04-27T10:18:11.414Z,24.02
2018-04-27T10:19:21.511Z,24.02
2018-04-27T10:20:31.728Z,24.03
2018-04-27T10:21:41.903Z,24.04
2018-04-27T10:22:52.103Z,24.03
2018-04-27T10:24:01.922Z,24.07
2018-04-27T10:25:12.073Z,24.17
2018-04-27T10:26:21.845Z,24.14
2018-04-27T10:27:31.683Z,24.19
2018-04-27T10:28:41.809Z,24.12
2018-04-27T10:29:51.903Z,24.04
2018-04-27T10:31:01.876Z,24.11
2018-04-27T10:32:11.470Z,24.11
2018-04-27T10:33:21.567Z,24.04
2018-04-27T10:34:32.720Z,24.04
2018-04-27T10:35:42.542Z,23.96
2018-04-27T10:36:52.631Z,24.03
2018-04-27T10:38:02.718Z,23.9
2018-04-27T10:39:12.547Z,23.96
2018-04-27T10:40:22.412Z,24
2018-04-27T10:41:32.518Z,23.93
2018-04-27T10:42:42.586Z,24.24
2018-04-27T10:43:52.687Z,24.27
2018-04-27T10:45:02.796Z,24.34
2018-04-27T10:46:12.907Z,24.42
2018-04-27T10:47:22.746Z,24.45
2018-04-27T10:48:32.308Z,24.39
2018-04-27T10:49:42.432Z,24.54
2018-04-27T10:50:52.515Z,24.66
2018-04-27T10:52:02.611Z,24.74
2018-04-27T10:53:12.419Z,24.7
2018-04-27T10:54:22.516Z,24.87
2018-04-27T10:55:32.597Z,24.9
2018-04-27T10:56:42.683Z,25.01
2018-04-27T10:57:52.767Z,25.02
2018-04-27T10:59:02.579Z,25.09
2018-04-27T11:00:12.426Z,25.15
2018-04-27T11:01:22.648Z,25.17
2018-04-27T11:02:32.657Z,25.04
2018-04-27T11:03:42.748Z,25.14
2018-04-27T11:04:52.829Z,25.19
2018-04-27T11:06:02.914Z,25.15
2018-04-27T11:07:13.012Z,25.07
2018-04-27T11:08:23.095Z,25.12
2018-04-27T11:09:33.233Z,25.2
2018-04-27T11:10:43.323Z,25.27
2018-04-27T11:11:53.415Z,25.33
2018-04-27T11:13:03.495Z,25.34
2018-04-27T11:14:13.592Z,25.41
2018-04-27T11:15:23.689Z,25.39
2018-04-27T11:16:33.776Z,25.41
2018-04-27T11:17:43.867Z,25.49
2018-04-27T11:18:53.987Z,25.56
2018-04-27T11:20:03.820Z,25.6
2018-04-27T11:21:14.043Z,25.6
2018-04-27T11:22:23.867Z,25.69
2018-04-27T11:23:33.961Z,25.81
2018-04-27T11:24:44.052Z,25.84
2018-04-27T11:25:54.142Z,25.96
2018-04-27T11:27:04.289Z,25.89
2018-04-27T11:28:14.393Z,25.81
2018-04-27T11:29:24.484Z,25.85
2018-04-27T11:30:34.578Z,25.64
2018-04-27T11:31:44.138Z,25.59
2018-04-27T11:32:54.272Z,25.47
2018-04-27T11:34:04.366Z,25.41
2018-04-27T11:35:14.630Z,25.33
2018-04-27T11:36:24.899Z,25.3
2018-04-27T11:37:35.017Z,25.27
2018-04-27T11:38:45.185Z,25.37
2018-04-27T11:39:55.055Z,25.3
2018-04-27T11:41:05.159Z,25.27
2018-04-27T11:42:15.271Z,25.32
2018-04-27T11:43:25.367Z,25.22
2018-04-27T11:44:35.440Z,25.3
2018-04-27T11:45:45.535Z,25.29
2018-04-27T11:46:55.619Z,25.22
2018-04-27T11:48:05.699Z,25.17
2018-04-27T11:49:15.788Z,25.22
2018-04-27T11:50:25.890Z,25.14
2018-04-27T12:00:05.201Z,24.89
2018-04-27T12:01:15.034Z,24.78
2018-04-27T12:02:25.130Z,24.83
2018-04-27T12:03:35.265Z,24.87
2018-04-27T12:04:45.475Z,24.87
2018-04-27T12:05:55.603Z,24.85
2018-04-27T12:07:05.702Z,24.87
2018-04-27T12:08:15.529Z,24.86
2018-04-27T12:09:25.622Z,24.86
2018-04-27T12:10:35.514Z,24.89
2018-04-27T12:11:45.842Z,24.87
2018-04-27T12:12:55.941Z,24.97
2018-04-27T12:14:05.768Z,24.89
2018-04-27T12:15:15.898Z,24.9
2018-04-27T12:16:25.455Z,24.9
2018-04-27T12:17:35.670Z,24.87
2018-04-27T12:18:45.957Z,24.83
2018-04-27T12:19:56.046Z,24.87
2018-04-27T12:21:06.134Z,24.9
2018-04-27T12:22:16.232Z,24.87
2018-04-27T12:23:26.073Z,24.86
2018-04-27T12:24:36.162Z,24.93
2018-04-27T12:25:46.233Z,25.04
2018-04-27T12:26:56.352Z,25.07
2018-04-27T12:28:06.687Z,25.05
2018-04-27T12:29:16.868Z,25.02
2018-04-27T12:30:26.694Z,25.05
2018-04-27T12:31:37.201Z,25.02
2018-04-27T12:32:47.524Z,25.01
2018-04-27T12:33:57.343Z,25.2
2018-04-27T12:35:07.452Z,25.14
2018-04-27T12:36:17.544Z,25.19
2018-04-27T12:37:27.350Z,25.19
2018-04-27T12:38:37.181Z,25.17
2018-04-27T12:39:47.289Z,25.24
2018-04-27T12:40:57.407Z,25.29
2018-04-27T12:42:07.240Z,25.29
2018-04-27T12:43:17.315Z,25.33
2018-04-27T12:44:27.409Z,25.34
2018-04-27T12:45:37.504Z,25.38
2018-04-27T12:46:47.655Z,25.38
2018-04-27T12:47:57.856Z,25.3
2018-04-27T12:49:08.301Z,25.27
2018-04-27T12:50:18.432Z,25.29
2018-04-27T12:51:28.519Z,25.26
2018-04-27T12:52:38.392Z,25.2
2018-04-27T12:53:48.497Z,25.15
2018-04-27T12:54:58.051Z,25.12
2018-04-27T12:56:07.904Z,25.17
2018-04-27T12:57:17.986Z,25.27
2018-04-27T12:58:27.851Z,25.15
2018-04-27T12:59:37.952Z,25.19
2018-04-27T13:00:48.067Z,25.12
2018-04-27T13:01:58.163Z,25.19
2018-04-27T13:03:08.006Z,25.24
2018-04-27T13:04:18.142Z,25.32
2018-04-27T13:05:27.963Z,25.32
2018-04-27T13:06:38.051Z,25.33
2018-04-27T13:07:48.145Z,25.26
2018-04-27T13:08:58.339Z,25.19
2018-04-27T13:10:08.427Z,25.17
2018-04-27T13:11:18.518Z,25.15
2018-04-27T13:12:28.609Z,25.19
2018-04-27T13:13:38.710Z,25.17
2018-04-27T13:14:48.832Z,25.14
2018-04-27T13:15:58.659Z,25.04
2018-04-27T13:17:08.776Z,25.09
2018-04-27T13:18:18.871Z,25.11
2018-04-27T13:19:28.993Z,25.05
2018-04-27T13:20:39.066Z,25.05
2018-04-27T13:21:49.251Z,25.14
2018-04-27T13:22:59.342Z,25.11
2018-04-27T13:24:09.522Z,25.07
2018-04-27T13:25:19.281Z,24.96
2018-04-27T13:26:29.619Z,24.97
2018-04-27T13:27:39.461Z,24.92
2018-04-27T13:28:49.567Z,24.89
2018-04-27T13:29:59.674Z,24.9
2018-04-27T13:31:09.780Z,24.9
2018-04-27T13:32:19.905Z,24.9
2018-04-27T13:33:30.134Z,25.05
2018-04-27T13:34:40.334Z,25.08
2018-04-27T13:35:50.502Z,25.05
2018-04-27T13:37:00.635Z,25.07
2018-04-27T13:38:10.750Z,25.02
2018-04-27T13:39:20.314Z,24.94
2018-04-27T13:40:30.533Z,24.9
2018-04-27T13:41:40.381Z,25.01
2018-04-27T13:42:50.486Z,25.12
2018-04-27T13:44:00.619Z,25.23
2018-04-27T13:45:10.659Z,25.14
2018-04-27T13:46:20.759Z,25.14
2018-04-27T13:47:30.847Z,25.07
2018-04-27T13:48:40.938Z,25.04
2018-04-27T13:49:51.096Z,25
2018-04-27T13:51:01.183Z,25.14
2018-04-27T13:52:11.253Z,25.11
2018-04-27T13:53:21.333Z,25
2018-04-27T13:54:31.459Z,25.02
2018-04-27T13:55:41.702Z,25.04
2018-04-27T13:56:51.254Z,25.11
2018-04-27T13:58:01.349Z,25.08
2018-04-27T13:59:11.472Z,25.02
2018-04-27T14:00:21.607Z,24.97
2018-04-27T14:01:31.418Z,24.9
2018-04-27T14:02:41.793Z,24.87
2018-04-27T14:03:52.164Z,24.96
2018-04-27T14:05:02.280Z,24.97
2018-04-27T14:06:12.112Z,25.09
2018-04-27T14:07:22.264Z,25.07
2018-04-27T14:08:32.360Z,25.11
2018-04-27T14:09:42.815Z,25.12
2018-04-27T14:10:53.153Z,25.07
2018-04-27T14:12:02.991Z,25.09
2018-04-27T14:13:12.869Z,25
2018-04-27T14:14:22.955Z,24.9
2018-04-27T14:15:33.047Z,24.89
2018-04-27T14:16:43.119Z,24.8
2018-04-27T14:17:52.952Z,24.82
2018-04-27T14:19:03.108Z,24.74
2018-04-27T14:20:13.246Z,24.75
2018-04-27T14:21:23.376Z,24.82
2018-04-27T14:22:33.321Z,24.74
2018-04-27T14:23:43.172Z,24.71
2018-04-27T14:24:53.264Z,24.74
2018-04-27T14:26:03.394Z,24.7
2018-04-27T14:27:13.250Z,24.71
2018-04-27T14:28:23.075Z,24.74
2018-04-27T14:29:33.188Z,24.69
2018-04-27T14:30:43.038Z,24.69
2018-04-27T14:31:53.151Z,24.78
2018-04-27T14:33:03.260Z,24.77
2018-04-27T14:34:13.340Z,24.69
2018-04-27T14:35:23.514Z,24.71
2018-04-27T14:36:33.647Z,24.55
2018-04-27T14:37:43.731Z,24.49
2018-04-27T14:38:53.549Z,24.48
2018-04-27T14:40:03.374Z,24.51
2018-04-27T14:41:13.200Z,24.42
2018-04-27T14:42:23.112Z,24.42
2018-04-27T14:43:32.933Z,24.46
2018-04-27T14:44:43.047Z,24.51
2018-04-27T14:45:52.884Z,24.51
2018-04-27T14:47:02.719Z,24.61
2018-04-27T14:48:12.680Z,24.58
2018-04-27T14:49:22.776Z,24.66
2018-04-27T14:50:32.888Z,24.7
2018-04-27T14:51:42.979Z,24.46
2018-04-27T14:52:52.821Z,24.59
2018-04-27T14:54:02.668Z,24.56
2018-04-27T14:55:12.797Z,24.58
2018-04-27T14:56:22.908Z,24.61
2018-04-27T14:57:33.028Z,24.56
2018-04-27T14:58:43.119Z,24.55
2018-04-27T14:59:53.027Z,24.4
2018-04-27T15:01:02.616Z,24.44
2018-04-27T15:02:12.720Z,24.37
2018-04-27T15:03:22.294Z,24.33
2018-04-27T15:04:32.394Z,24.3
2018-04-27T15:05:42.513Z,24.29
2018-04-27T15:06:52.621Z,24.29
2018-04-27T15:08:02.751Z,24.32
2018-04-27T15:09:12.842Z,24.33
2018-04-27T15:10:22.951Z,24.32
2018-04-27T15:11:33.083Z,24.34
2018-04-27T15:12:43.190Z,24.3
2018-04-27T15:13:53.300Z,24.29
2018-04-27T15:15:03.396Z,24.22
2018-04-27T15:16:13.506Z,24.15
2018-04-27T15:17:23.371Z,24.14
2018-04-27T15:18:33.497Z,24.15
2018-04-27T15:19:43.581Z,24.15
2018-04-27T15:20:53.692Z,24.19
2018-04-27T15:22:03.824Z,24.19
2018-04-27T15:23:13.975Z,24.22
2018-04-27T15:24:24.089Z,24.24
2018-04-27T15:25:34.199Z,24.27
2018-04-27T15:26:44.321Z,24.15
2018-04-27T15:27:54.172Z,24.26
2018-04-27T15:29:04.007Z,24.18
2018-04-27T15:30:14.352Z,24.15
2018-04-27T15:31:24.677Z,24.19
2018-04-27T15:32:34.796Z,24.17
2018-04-27T15:33:45.092Z,24.09
2018-04-27T15:34:55.414Z,23.93
2018-04-27T15:36:05.528Z,23.87
2018-04-27T15:37:15.644Z,23.87
2018-04-27T15:38:25.779Z,23.85
2018-04-27T15:39:35.900Z,23.82
2018-04-27T15:40:46.039Z,23.78
2018-04-27T15:41:56.132Z,23.85
2018-04-27T15:43:06.269Z,23.85
2018-04-27T15:44:16.374Z,23.82
2018-04-27T15:45:26.477Z,23.78